sensor_id;sensor_type;location;lat;lon;timestamp;P1;durP1;ratioP1;P2;durP2;ratioP2
20140;SDS011;10231;47.702;9.826;2024-01-16T00:00:33;4.17;;;3.77;;
20140;SDS011;10231;47.702;9.826;2024-01-16T00:02:58;4.93;;;3.80;;
20140;SDS011;10231;47.702;9.826;2024-01-16T00:05:24;4.80;;;3.47;;
20140;SDS011;10231;47.702;9.826;2024-01-16T00:07:50;4.40;;;3.70;;
20140;SDS011;10231;47.702;9.826;2024-01-16T00:10:15;5.20;;;3.70;;
20140;SDS011;10231;47.702;9.826;2024-01-16T00:12:41;3.90;;;3.50;;
20140;SDS011;10231;47.702;9.826;2024-01-16T00:15:07;4.40;;;4.00;;
20140;SDS011;10231;47.702;9.826;2024-01-16T00:17:33;4.50;;;3.90;;
20140;SDS011;10231;47.702;9.826;2024-01-16T00:19:59;3.93;;;3.53;;
20140;SDS011;10231;47.702;9.826;2024-01-16T00:22:28;5.30;;;3.67;;
20140;SDS011;10231;47.702;9.826;2024-01-16T00:24:54;4.57;;;3.67;;
20140;SDS011;10231;47.702;9.826;2024-01-16T00:27:20;5.00;;;4.13;;
20140;SDS011;10231;47.702;9.826;2024-01-16T00:29:46;5.07;;;3.90;;
20140;SDS011;10231;47.702;9.826;2024-01-16T00:32:11;4.67;;;4.20;;
20140;SDS011;10231;47.702;9.826;2024-01-16T00:34:41;5.63;;;4.40;;
20140;SDS011;10231;47.702;9.826;2024-01-16T00:37:07;4.50;;;4.10;;
20140;SDS011;10231;47.702;9.826;2024-01-16T00:39:32;4.33;;;3.50;;
20140;SDS011;10231;47.702;9.826;2024-01-16T00:41:58;4.03;;;3.63;;
20140;SDS011;10231;47.702;9.826;2024-01-16T00:44:24;4.07;;;3.63;;
20140;SDS011;10231;47.702;9.826;2024-01-16T00:46:49;5.23;;;4.00;;
20140;SDS011;10231;47.702;9.826;2024-01-16T00:49:15;4.43;;;3.50;;
20140;SDS011;10231;47.702;9.826;2024-01-16T00:51:40;4.13;;;3.20;;
20140;SDS011;10231;47.702;9.826;2024-01-16T00:54:06;5.70;;;3.90;;
20140;SDS011;10231;47.702;9.826;2024-01-16T00:56:32;4.90;;;3.53;;
20140;SDS011;10231;47.702;9.826;2024-01-16T00:58:59;3.87;;;3.50;;
20140;SDS011;10231;47.702;9.826;2024-01-16T01:01:25;4.53;;;3.70;;
20140;SDS011;10231;47.702;9.826;2024-01-16T01:03:51;4.63;;;3.70;;
20140;SDS011;10231;47.702;9.826;2024-01-16T01:06:17;4.07;;;3.67;;
20140;SDS011;10231;47.702;9.826;2024-01-16T01:08:42;4.43;;;3.70;;
20140;SDS011;10231;47.702;9.826;2024-01-16T01:11:08;5.33;;;4.63;;
20140;SDS011;10231;47.702;9.826;2024-01-16T01:13:33;4.37;;;3.63;;
20140;SDS011;10231;47.702;9.826;2024-01-16T01:15:59;5.43;;;3.87;;
20140;SDS011;10231;47.702;9.826;2024-01-16T01:18:25;4.20;;;3.80;;
20140;SDS011;10231;47.702;9.826;2024-01-16T01:20:51;4.80;;;3.87;;
20140;SDS011;10231;47.702;9.826;2024-01-16T01:23:16;5.13;;;3.90;;
20140;SDS011;10231;47.702;9.826;2024-01-16T01:25:42;4.97;;;4.30;;
20140;SDS011;10231;47.702;9.826;2024-01-16T01:28:08;4.67;;;3.70;;
20140;SDS011;10231;47.702;9.826;2024-01-16T01:30:33;5.17;;;3.77;;
20140;SDS011;10231;47.702;9.826;2024-01-16T01:32:59;4.40;;;4.00;;
20140;SDS011;10231;47.702;9.826;2024-01-16T01:35:24;4.27;;;3.60;;
20140;SDS011;10231;47.702;9.826;2024-01-16T01:37:50;5.67;;;4.03;;
20140;SDS011;10231;47.702;9.826;2024-01-16T01:40:16;5.60;;;4.10;;
20140;SDS011;10231;47.702;9.826;2024-01-16T01:42:41;5.83;;;4.47;;
20140;SDS011;10231;47.702;9.826;2024-01-16T01:45:10;4.93;;;3.47;;
20140;SDS011;10231;47.702;9.826;2024-01-16T01:47:36;5.57;;;3.90;;
20140;SDS011;10231;47.702;9.826;2024-01-16T01:50:19;5.37;;;3.80;;
20140;SDS011;10231;47.702;9.826;2024-01-16T01:52:44;6.03;;;4.33;;
20140;SDS011;10231;47.702;9.826;2024-01-16T01:55:10;4.83;;;4.23;;
20140;SDS011;10231;47.702;9.826;2024-01-16T01:57:38;5.73;;;5.00;;
20140;SDS011;10231;47.702;9.826;2024-01-16T02:00:05;6.00;;;4.27;;
20140;SDS011;10231;47.702;9.826;2024-01-16T02:02:31;4.97;;;4.47;;
20140;SDS011;10231;47.702;9.826;2024-01-16T02:04:57;5.67;;;4.67;;
20140;SDS011;10231;47.702;9.826;2024-01-16T02:07:23;4.67;;;3.63;;
20140;SDS011;10231;47.702;9.826;2024-01-16T02:09:49;4.73;;;4.10;;
20140;SDS011;10231;47.702;9.826;2024-01-16T02:12:15;4.30;;;3.90;;
20140;SDS011;10231;47.702;9.826;2024-01-16T02:14:41;4.13;;;3.73;;
20140;SDS011;10231;47.702;9.826;2024-01-16T02:17:06;4.63;;;3.70;;
20140;SDS011;10231;47.702;9.826;2024-01-16T02:19:32;8.37;;;4.20;;
20140;SDS011;10231;47.702;9.826;2024-01-16T02:21:59;6.07;;;4.13;;
20140;SDS011;10231;47.702;9.826;2024-01-16T02:24:29;5.33;;;4.43;;
20140;SDS011;10231;47.702;9.826;2024-01-16T02:26:54;5.07;;;4.47;;
20140;SDS011;10231;47.702;9.826;2024-01-16T02:29:21;6.33;;;4.53;;
20140;SDS011;10231;47.702;9.826;2024-01-16T02:31:46;4.20;;;3.80;;
20140;SDS011;10231;47.702;9.826;2024-01-16T02:34:12;5.53;;;4.23;;
20140;SDS011;10231;47.702;9.826;2024-01-16T02:36:38;5.83;;;4.20;;
20140;SDS011;10231;47.702;9.826;2024-01-16T02:39:03;4.70;;;3.87;;
20140;SDS011;10231;47.702;9.826;2024-01-16T02:41:31;4.80;;;4.03;;
20140;SDS011;10231;47.702;9.826;2024-01-16T02:43:56;3.87;;;3.47;;
20140;SDS011;10231;47.702;9.826;2024-01-16T02:46:22;4.43;;;3.87;;
20140;SDS011;10231;47.702;9.826;2024-01-16T02:48:48;5.17;;;4.00;;
20140;SDS011;10231;47.702;9.826;2024-01-16T02:51:13;6.17;;;4.23;;
20140;SDS011;10231;47.702;9.826;2024-01-16T02:53:40;4.20;;;3.80;;
20140;SDS011;10231;47.702;9.826;2024-01-16T02:56:07;4.97;;;3.47;;
20140;SDS011;10231;47.702;9.826;2024-01-16T02:58:33;5.77;;;4.13;;
20140;SDS011;10231;47.702;9.826;2024-01-16T03:00:58;5.73;;;3.90;;
20140;SDS011;10231;47.702;9.826;2024-01-16T03:03:24;6.80;;;4.07;;
20140;SDS011;10231;47.702;9.826;2024-01-16T03:05:49;5.57;;;4.07;;
20140;SDS011;10231;47.702;9.826;2024-01-16T03:08:15;6.63;;;4.90;;
20140;SDS011;10231;47.702;9.826;2024-01-16T03:10:41;5.23;;;4.33;;
20140;SDS011;10231;47.702;9.826;2024-01-16T03:13:06;4.93;;;3.90;;
20140;SDS011;10231;47.702;9.826;2024-01-16T03:15:32;5.73;;;4.77;;
20140;SDS011;10231;47.702;9.826;2024-01-16T03:17:58;5.40;;;4.40;;
20140;SDS011;10231;47.702;9.826;2024-01-16T03:20:24;6.03;;;4.20;;
20140;SDS011;10231;47.702;9.826;2024-01-16T03:22:50;4.60;;;3.80;;
20140;SDS011;10231;47.702;9.826;2024-01-16T03:25:16;5.47;;;4.00;;
20140;SDS011;10231;47.702;9.826;2024-01-16T03:27:42;5.37;;;4.43;;
20140;SDS011;10231;47.702;9.826;2024-01-16T03:30:07;6.03;;;4.80;;
20140;SDS011;10231;47.702;9.826;2024-01-16T03:32:34;4.23;;;3.80;;
20140;SDS011;10231;47.702;9.826;2024-01-16T03:35:03;4.07;;;3.67;;
20140;SDS011;10231;47.702;9.826;2024-01-16T03:37:29;4.77;;;4.27;;
20140;SDS011;10231;47.702;9.826;2024-01-16T03:39:54;5.47;;;4.73;;
20140;SDS011;10231;47.702;9.826;2024-01-16T03:42:20;5.37;;;4.10;;
20140;SDS011;10231;47.702;9.826;2024-01-16T03:44:46;4.07;;;3.67;;
20140;SDS011;10231;47.702;9.826;2024-01-16T03:47:11;4.67;;;4.20;;
20140;SDS011;10231;47.702;9.826;2024-01-16T03:49:37;5.03;;;4.27;;
20140;SDS011;10231;47.702;9.826;2024-01-16T03:52:03;5.60;;;3.97;;
20140;SDS011;10231;47.702;9.826;2024-01-16T03:54:29;5.13;;;4.53;;
20140;SDS011;10231;47.702;9.826;2024-01-16T03:56:54;4.53;;;4.13;;
20140;SDS011;10231;47.702;9.826;2024-01-16T03:59:20;4.23;;;3.83;;
20140;SDS011;10231;47.702;9.826;2024-01-16T04:01:46;5.10;;;4.13;;
20140;SDS011;10231;47.702;9.826;2024-01-16T04:04:13;3.97;;;3.40;;
20140;SDS011;10231;47.702;9.826;2024-01-16T04:06:39;3.60;;;3.30;;
20140;SDS011;10231;47.702;9.826;2024-01-16T04:09:05;5.47;;;4.43;;
20140;SDS011;10231;47.702;9.826;2024-01-16T04:11:32;5.43;;;4.80;;
20140;SDS011;10231;47.702;9.826;2024-01-16T04:13:57;5.20;;;4.60;;
20140;SDS011;10231;47.702;9.826;2024-01-16T04:16:23;5.63;;;4.20;;
20140;SDS011;10231;47.702;9.826;2024-01-16T04:18:49;5.27;;;4.77;;
20140;SDS011;10231;47.702;9.826;2024-01-16T04:21:14;7.47;;;5.17;;
20140;SDS011;10231;47.702;9.826;2024-01-16T04:23:41;5.77;;;4.47;;
20140;SDS011;10231;47.702;9.826;2024-01-16T04:26:07;5.23;;;4.80;;
20140;SDS011;10231;47.702;9.826;2024-01-16T04:28:33;5.73;;;4.90;;
20140;SDS011;10231;47.702;9.826;2024-01-16T04:30:59;5.80;;;4.63;;
20140;SDS011;10231;47.702;9.826;2024-01-16T04:33:26;7.57;;;5.13;;
20140;SDS011;10231;47.702;9.826;2024-01-16T04:35:52;7.83;;;5.80;;
20140;SDS011;10231;47.702;9.826;2024-01-16T04:38:17;5.00;;;4.30;;
20140;SDS011;10231;47.702;9.826;2024-01-16T04:40:43;5.40;;;4.90;;
20140;SDS011;10231;47.702;9.826;2024-01-16T04:43:08;6.10;;;4.90;;
20140;SDS011;10231;47.702;9.826;2024-01-16T04:45:34;5.80;;;4.73;;
20140;SDS011;10231;47.702;9.826;2024-01-16T04:47:59;4.47;;;4.03;;
20140;SDS011;10231;47.702;9.826;2024-01-16T04:50:25;5.07;;;4.30;;
20140;SDS011;10231;47.702;9.826;2024-01-16T04:52:56;5.23;;;4.50;;
20140;SDS011;10231;47.702;9.826;2024-01-16T04:55:25;5.10;;;3.87;;
20140;SDS011;10231;47.702;9.826;2024-01-16T04:57:52;5.63;;;4.37;;
20140;SDS011;10231;47.702;9.826;2024-01-16T05:00:17;5.07;;;4.53;;
20140;SDS011;10231;47.702;9.826;2024-01-16T05:02:43;4.23;;;3.80;;
20140;SDS011;10231;47.702;9.826;2024-01-16T05:05:09;4.10;;;3.47;;
20140;SDS011;10231;47.702;9.826;2024-01-16T05:07:34;4.97;;;3.97;;
20140;SDS011;10231;47.702;9.826;2024-01-16T05:10:00;4.40;;;3.90;;
20140;SDS011;10231;47.702;9.826;2024-01-16T05:12:26;5.03;;;4.30;;
20140;SDS011;10231;47.702;9.826;2024-01-16T05:14:52;6.10;;;4.33;;
20140;SDS011;10231;47.702;9.826;2024-01-16T05:17:17;4.50;;;3.93;;
20140;SDS011;10231;47.702;9.826;2024-01-16T05:19:43;4.77;;;4.00;;
20140;SDS011;10231;47.702;9.826;2024-01-16T05:22:09;5.83;;;4.50;;
20140;SDS011;10231;47.702;9.826;2024-01-16T05:24:35;6.70;;;4.20;;
20140;SDS011;10231;47.702;9.826;2024-01-16T05:27:01;4.73;;;4.23;;
20140;SDS011;10231;47.702;9.826;2024-01-16T05:29:26;4.60;;;4.20;;
20140;SDS011;10231;47.702;9.826;2024-01-16T05:31:52;4.57;;;4.00;;
20140;SDS011;10231;47.702;9.826;2024-01-16T05:34:17;5.07;;;4.17;;
20140;SDS011;10231;47.702;9.826;2024-01-16T05:36:43;5.60;;;4.33;;
20140;SDS011;10231;47.702;9.826;2024-01-16T05:39:09;5.63;;;4.20;;
20140;SDS011;10231;47.702;9.826;2024-01-16T05:41:35;4.70;;;4.27;;
20140;SDS011;10231;47.702;9.826;2024-01-16T05:44:01;5.47;;;4.90;;
20140;SDS011;10231;47.702;9.826;2024-01-16T05:46:32;6.20;;;4.30;;
20140;SDS011;10231;47.702;9.826;2024-01-16T05:48:59;6.73;;;4.37;;
20140;SDS011;10231;47.702;9.826;2024-01-16T05:51:26;8.13;;;5.33;;
20140;SDS011;10231;47.702;9.826;2024-01-16T05:53:52;6.70;;;5.00;;
20140;SDS011;10231;47.702;9.826;2024-01-16T05:56:18;7.23;;;5.20;;
20140;SDS011;10231;47.702;9.826;2024-01-16T05:58:44;4.80;;;4.30;;
20140;SDS011;10231;47.702;9.826;2024-01-16T06:01:09;6.83;;;5.13;;
20140;SDS011;10231;47.702;9.826;2024-01-16T06:03:38;7.13;;;5.00;;
20140;SDS011;10231;47.702;9.826;2024-01-16T06:06:04;6.80;;;5.27;;
20140;SDS011;10231;47.702;9.826;2024-01-16T06:08:30;6.87;;;5.03;;
20140;SDS011;10231;47.702;9.826;2024-01-16T06:10:55;6.57;;;4.50;;
20140;SDS011;10231;47.702;9.826;2024-01-16T06:13:21;8.50;;;4.90;;
20140;SDS011;10231;47.702;9.826;2024-01-16T06:15:47;7.07;;;4.97;;
20140;SDS011;10231;47.702;9.826;2024-01-16T06:18:12;6.27;;;4.37;;
20140;SDS011;10231;47.702;9.826;2024-01-16T06:20:38;7.93;;;5.60;;
20140;SDS011;10231;47.702;9.826;2024-01-16T06:23:03;7.37;;;5.20;;
20140;SDS011;10231;47.702;9.826;2024-01-16T06:25:29;7.40;;;5.10;;
20140;SDS011;10231;47.702;9.826;2024-01-16T06:27:55;6.97;;;4.83;;
20140;SDS011;10231;47.702;9.826;2024-01-16T06:30:29;6.17;;;4.27;;
20140;SDS011;10231;47.702;9.826;2024-01-16T06:32:58;6.20;;;4.87;;
20140;SDS011;10231;47.702;9.826;2024-01-16T06:35:24;6.17;;;5.10;;
20140;SDS011;10231;47.702;9.826;2024-01-16T06:37:50;15.60;;;13.43;;
20140;SDS011;10231;47.702;9.826;2024-01-16T06:40:15;8.30;;;6.63;;
20140;SDS011;10231;47.702;9.826;2024-01-16T06:42:41;6.90;;;5.20;;
20140;SDS011;10231;47.702;9.826;2024-01-16T06:45:07;6.37;;;5.20;;
20140;SDS011;10231;47.702;9.826;2024-01-16T06:47:32;10.63;;;5.60;;
20140;SDS011;10231;47.702;9.826;2024-01-16T06:49:58;6.93;;;5.23;;
20140;SDS011;10231;47.702;9.826;2024-01-16T06:52:23;6.67;;;5.07;;
20140;SDS011;10231;47.702;9.826;2024-01-16T06:54:49;5.80;;;5.07;;
20140;SDS011;10231;47.702;9.826;2024-01-16T06:57:15;7.13;;;5.73;;
20140;SDS011;10231;47.702;9.826;2024-01-16T06:59:41;8.80;;;4.63;;
20140;SDS011;10231;47.702;9.826;2024-01-16T07:02:06;9.27;;;5.03;;
20140;SDS011;10231;47.702;9.826;2024-01-16T07:04:33;7.70;;;4.17;;
20140;SDS011;10231;47.702;9.826;2024-01-16T07:06:59;5.20;;;4.50;;
20140;SDS011;10231;47.702;9.826;2024-01-16T07:09:25;10.50;;;5.63;;
20140;SDS011;10231;47.702;9.826;2024-01-16T07:11:52;6.40;;;4.47;;
20140;SDS011;10231;47.702;9.826;2024-01-16T07:14:17;6.13;;;4.43;;
20140;SDS011;10231;47.702;9.826;2024-01-16T07:16:43;7.57;;;5.87;;
20140;SDS011;10231;47.702;9.826;2024-01-16T07:19:08;6.77;;;5.10;;
20140;SDS011;10231;47.702;9.826;2024-01-16T07:21:34;6.03;;;5.10;;
20140;SDS011;10231;47.702;9.826;2024-01-16T07:24:00;7.43;;;5.23;;
20140;SDS011;10231;47.702;9.826;2024-01-16T07:26:25;7.60;;;5.77;;
20140;SDS011;10231;47.702;9.826;2024-01-16T07:28:51;7.60;;;5.10;;
20140;SDS011;10231;47.702;9.826;2024-01-16T07:31:17;8.83;;;5.13;;
20140;SDS011;10231;47.702;9.826;2024-01-16T07:33:42;8.80;;;5.87;;
20140;SDS011;10231;47.702;9.826;2024-01-16T07:36:08;10.40;;;7.77;;
20140;SDS011;10231;47.702;9.826;2024-01-16T07:38:36;11.67;;;6.33;;
20140;SDS011;10231;47.702;9.826;2024-01-16T07:41:01;10.13;;;6.10;;
20140;SDS011;10231;47.702;9.826;2024-01-16T07:43:27;7.17;;;5.87;;
20140;SDS011;10231;47.702;9.826;2024-01-16T07:45:54;8.80;;;5.77;;
20140;SDS011;10231;47.702;9.826;2024-01-16T07:48:20;7.73;;;5.53;;
20140;SDS011;10231;47.702;9.826;2024-01-16T07:50:45;6.27;;;5.67;;
20140;SDS011;10231;47.702;9.826;2024-01-16T07:53:11;7.87;;;5.97;;
20140;SDS011;10231;47.702;9.826;2024-01-16T07:55:37;9.33;;;5.50;;
20140;SDS011;10231;47.702;9.826;2024-01-16T07:58:02;11.80;;;6.00;;
20140;SDS011;10231;47.702;9.826;2024-01-16T08:00:29;7.90;;;5.73;;
20140;SDS011;10231;47.702;9.826;2024-01-16T08:02:55;8.03;;;5.87;;
20140;SDS011;10231;47.702;9.826;2024-01-16T08:05:21;8.73;;;6.13;;
20140;SDS011;10231;47.702;9.826;2024-01-16T08:07:50;10.03;;;6.30;;
20140;SDS011;10231;47.702;9.826;2024-01-16T08:10:16;7.77;;;6.60;;
20140;SDS011;10231;47.702;9.826;2024-01-16T08:12:42;8.03;;;7.03;;
20140;SDS011;10231;47.702;9.826;2024-01-16T08:15:07;11.47;;;6.63;;
20140;SDS011;10231;47.702;9.826;2024-01-16T08:17:33;7.47;;;6.33;;
20140;SDS011;10231;47.702;9.826;2024-01-16T08:19:59;9.50;;;7.10;;
20140;SDS011;10231;47.702;9.826;2024-01-16T08:22:24;10.57;;;7.10;;
20140;SDS011;10231;47.702;9.826;2024-01-16T08:24:50;8.50;;;6.83;;
20140;SDS011;10231;47.702;9.826;2024-01-16T08:27:15;8.33;;;6.60;;
20140;SDS011;10231;47.702;9.826;2024-01-16T08:29:42;9.27;;;6.87;;
20140;SDS011;10231;47.702;9.826;2024-01-16T08:32:07;8.67;;;7.30;;
20140;SDS011;10231;47.702;9.826;2024-01-16T08:34:33;8.00;;;7.20;;
20140;SDS011;10231;47.702;9.826;2024-01-16T08:36:58;10.03;;;7.53;;
20140;SDS011;10231;47.702;9.826;2024-01-16T08:39:24;10.20;;;6.97;;
20140;SDS011;10231;47.702;9.826;2024-01-16T08:41:50;10.10;;;7.50;;
20140;SDS011;10231;47.702;9.826;2024-01-16T08:44:16;10.53;;;7.47;;
20140;SDS011;10231;47.702;9.826;2024-01-16T08:46:41;8.03;;;7.23;;
20140;SDS011;10231;47.702;9.826;2024-01-16T08:49:07;9.93;;;7.77;;
20140;SDS011;10231;47.702;9.826;2024-01-16T08:51:34;10.40;;;7.07;;
20140;SDS011;10231;47.702;9.826;2024-01-16T08:53:59;9.67;;;6.90;;
20140;SDS011;10231;47.702;9.826;2024-01-16T08:56:25;7.53;;;6.80;;
20140;SDS011;10231;47.702;9.826;2024-01-16T08:58:51;10.20;;;7.63;;
20140;SDS011;10231;47.702;9.826;2024-01-16T09:01:16;10.13;;;8.10;;
20140;SDS011;10231;47.702;9.826;2024-01-16T09:03:42;10.00;;;7.70;;
20140;SDS011;10231;47.702;9.826;2024-01-16T09:06:08;10.03;;;7.37;;
20140;SDS011;10231;47.702;9.826;2024-01-16T09:08:35;8.47;;;7.50;;
20140;SDS011;10231;47.702;9.826;2024-01-16T09:11:00;12.20;;;8.00;;
20140;SDS011;10231;47.702;9.826;2024-01-16T09:13:26;9.97;;;7.70;;
20140;SDS011;10231;47.702;9.826;2024-01-16T09:15:52;10.50;;;7.37;;
20140;SDS011;10231;47.702;9.826;2024-01-16T09:18:17;9.67;;;8.00;;
20140;SDS011;10231;47.702;9.826;2024-01-16T09:20:43;8.83;;;7.00;;
20140;SDS011;10231;47.702;9.826;2024-01-16T09:23:09;8.47;;;6.70;;
20140;SDS011;10231;47.702;9.826;2024-01-16T09:25:34;11.00;;;8.17;;
20140;SDS011;10231;47.702;9.826;2024-01-16T09:28:01;9.10;;;7.97;;
20140;SDS011;10231;47.702;9.826;2024-01-16T09:30:26;9.53;;;7.23;;
20140;SDS011;10231;47.702;9.826;2024-01-16T09:32:52;11.77;;;8.10;;
20140;SDS011;10231;47.702;9.826;2024-01-16T09:35:18;9.70;;;7.63;;
20140;SDS011;10231;47.702;9.826;2024-01-16T09:37:43;9.53;;;8.37;;
20140;SDS011;10231;47.702;9.826;2024-01-16T09:40:10;9.20;;;7.40;;
20140;SDS011;10231;47.702;9.826;2024-01-16T09:42:35;11.17;;;7.43;;
20140;SDS011;10231;47.702;9.826;2024-01-16T09:45:01;9.73;;;8.13;;
20140;SDS011;10231;47.702;9.826;2024-01-16T09:47:28;9.03;;;6.83;;
20140;SDS011;10231;47.702;9.826;2024-01-16T09:49:56;9.60;;;7.40;;
20140;SDS011;10231;47.702;9.826;2024-01-16T09:52:24;10.33;;;7.80;;
20140;SDS011;10231;47.702;9.826;2024-01-16T09:54:50;8.27;;;7.20;;
20140;SDS011;10231;47.702;9.826;2024-01-16T09:57:15;10.00;;;7.67;;
20140;SDS011;10231;47.702;9.826;2024-01-16T09:59:47;8.83;;;7.00;;
20140;SDS011;10231;47.702;9.826;2024-01-16T10:02:13;9.03;;;7.17;;
20140;SDS011;10231;47.702;9.826;2024-01-16T10:04:42;8.63;;;7.47;;
20140;SDS011;10231;47.702;9.826;2024-01-16T10:07:09;10.07;;;7.20;;
20140;SDS011;10231;47.702;9.826;2024-01-16T10:09:37;9.90;;;7.60;;
20140;SDS011;10231;47.702;9.826;2024-01-16T10:12:04;9.47;;;6.90;;
20140;SDS011;10231;47.702;9.826;2024-01-16T10:14:33;8.40;;;6.63;;
20140;SDS011;10231;47.702;9.826;2024-01-16T10:16:59;9.40;;;7.60;;
20140;SDS011;10231;47.702;9.826;2024-01-16T10:19:34;8.60;;;7.27;;
20140;SDS011;10231;47.702;9.826;2024-01-16T10:22:12;7.83;;;6.60;;
20140;SDS011;10231;47.702;9.826;2024-01-16T10:24:37;9.37;;;7.80;;
20140;SDS011;10231;47.702;9.826;2024-01-16T10:27:03;8.83;;;7.13;;
20140;SDS011;10231;47.702;9.826;2024-01-16T10:29:29;8.53;;;7.00;;
20140;SDS011;10231;47.702;9.826;2024-01-16T10:31:56;11.40;;;8.17;;
20140;SDS011;10231;47.702;9.826;2024-01-16T10:34:22;9.57;;;6.60;;
20140;SDS011;10231;47.702;9.826;2024-01-16T10:36:49;9.20;;;6.70;;
20140;SDS011;10231;47.702;9.826;2024-01-16T10:39:17;9.83;;;6.63;;
20140;SDS011;10231;47.702;9.826;2024-01-16T10:41:53;8.70;;;6.43;;
20140;SDS011;10231;47.702;9.826;2024-01-16T10:44:22;9.77;;;7.10;;
20140;SDS011;10231;47.702;9.826;2024-01-16T10:46:48;9.47;;;7.10;;
20140;SDS011;10231;47.702;9.826;2024-01-16T10:49:13;8.43;;;6.93;;
20140;SDS011;10231;47.702;9.826;2024-01-16T10:51:39;9.10;;;6.70;;
20140;SDS011;10231;47.702;9.826;2024-01-16T10:54:13;10.20;;;6.80;;
20140;SDS011;10231;47.702;9.826;2024-01-16T10:56:42;10.23;;;7.23;;
20140;SDS011;10231;47.702;9.826;2024-01-16T11:01:39;9.57;;;6.87;;
20140;SDS011;10231;47.702;9.826;2024-01-16T11:04:08;10.53;;;7.07;;
20140;SDS011;10231;47.702;9.826;2024-01-16T11:06:34;8.77;;;7.00;;
20140;SDS011;10231;47.702;9.826;2024-01-16T11:09:00;8.17;;;6.80;;
20140;SDS011;10231;47.702;9.826;2024-01-16T11:11:27;10.80;;;7.27;;
20140;SDS011;10231;47.702;9.826;2024-01-16T11:13:53;9.67;;;7.83;;
20140;SDS011;10231;47.702;9.826;2024-01-16T11:16:20;8.03;;;6.83;;
20140;SDS011;10231;47.702;9.826;2024-01-16T11:18:46;10.90;;;7.40;;
20140;SDS011;10231;47.702;9.826;2024-01-16T11:21:13;10.00;;;8.60;;
20140;SDS011;10231;47.702;9.826;2024-01-16T11:23:40;10.57;;;7.33;;
20140;SDS011;10231;47.702;9.826;2024-01-16T11:28:50;9.50;;;7.03;;
20140;SDS011;10231;47.702;9.826;2024-01-16T11:31:27;10.10;;;7.93;;
20140;SDS011;10231;47.702;9.826;2024-01-16T11:33:53;9.30;;;7.57;;
20140;SDS011;10231;47.702;9.826;2024-01-16T11:39:22;8.17;;;6.10;;
20140;SDS011;10231;47.702;9.826;2024-01-16T11:47:19;8.37;;;7.50;;
20140;SDS011;10231;47.702;9.826;2024-01-16T11:50:09;8.97;;;6.90;;
20140;SDS011;10231;47.702;9.826;2024-01-16T11:52:42;9.43;;;7.17;;
20140;SDS011;10231;47.702;9.826;2024-01-16T12:01:15;8.90;;;7.17;;
20140;SDS011;10231;47.702;9.826;2024-01-16T12:03:44;7.43;;;6.63;;
20140;SDS011;10231;47.702;9.826;2024-01-16T12:06:10;9.03;;;7.37;;
20140;SDS011;10231;47.702;9.826;2024-01-16T12:08:36;10.27;;;7.37;;
20140;SDS011;10231;47.702;9.826;2024-01-16T12:11:04;10.83;;;7.97;;
20140;SDS011;10231;47.702;9.826;2024-01-16T12:13:30;8.47;;;7.40;;
20140;SDS011;10231;47.702;9.826;2024-01-16T12:15:59;8.57;;;7.23;;
20140;SDS011;10231;47.702;9.826;2024-01-16T12:18:25;7.97;;;6.93;;
20140;SDS011;10231;47.702;9.826;2024-01-16T12:20:51;8.60;;;6.90;;
20140;SDS011;10231;47.702;9.826;2024-01-16T12:23:16;11.17;;;7.63;;
20140;SDS011;10231;47.702;9.826;2024-01-16T12:25:43;9.30;;;7.10;;
20140;SDS011;10231;47.702;9.826;2024-01-16T12:28:09;8.57;;;7.27;;
20140;SDS011;10231;47.702;9.826;2024-01-16T12:30:39;9.57;;;7.20;;
20140;SDS011;10231;47.702;9.826;2024-01-16T12:33:08;9.50;;;7.40;;
20140;SDS011;10231;47.702;9.826;2024-01-16T12:38:01;7.80;;;6.63;;
20140;SDS011;10231;47.702;9.826;2024-01-16T12:40:28;9.03;;;7.33;;
20140;SDS011;10231;47.702;9.826;2024-01-16T12:42:54;8.87;;;7.27;;
20140;SDS011;10231;47.702;9.826;2024-01-16T12:45:20;8.60;;;7.27;;
20140;SDS011;10231;47.702;9.826;2024-01-16T12:47:50;8.20;;;7.30;;
20140;SDS011;10231;47.702;9.826;2024-01-16T12:50:20;8.97;;;7.87;;
20140;SDS011;10231;47.702;9.826;2024-01-16T12:52:53;9.90;;;7.27;;
20140;SDS011;10231;47.702;9.826;2024-01-16T12:55:33;9.27;;;6.93;;
20140;SDS011;10231;47.702;9.826;2024-01-16T12:58:19;9.00;;;7.00;;
20140;SDS011;10231;47.702;9.826;2024-01-16T13:00:49;7.53;;;6.57;;
20140;SDS011;10231;47.702;9.826;2024-01-16T13:03:16;7.40;;;6.53;;
20140;SDS011;10231;47.702;9.826;2024-01-16T13:05:45;7.47;;;5.97;;
20140;SDS011;10231;47.702;9.826;2024-01-16T13:08:19;7.97;;;6.70;;
20140;SDS011;10231;47.702;9.826;2024-01-16T13:10:45;9.47;;;7.57;;
20140;SDS011;10231;47.702;9.826;2024-01-16T13:13:20;8.60;;;5.90;;
20140;SDS011;10231;47.702;9.826;2024-01-16T13:15:49;7.10;;;6.40;;
20140;SDS011;10231;47.702;9.826;2024-01-16T13:18:19;9.27;;;6.60;;
20140;SDS011;10231;47.702;9.826;2024-01-16T13:20:51;7.90;;;6.90;;
20140;SDS011;10231;47.702;9.826;2024-01-16T13:23:18;8.23;;;6.50;;
20140;SDS011;10231;47.702;9.826;2024-01-16T13:25:46;7.57;;;5.97;;
20140;SDS011;10231;47.702;9.826;2024-01-16T13:28:13;6.67;;;6.07;;
20140;SDS011;10231;47.702;9.826;2024-01-16T13:30:39;7.87;;;6.13;;
20140;SDS011;10231;47.702;9.826;2024-01-16T13:33:05;6.70;;;5.70;;
20140;SDS011;10231;47.702;9.826;2024-01-16T13:35:31;6.97;;;6.13;;
20140;SDS011;10231;47.702;9.826;2024-01-16T13:37:59;6.70;;;6.00;;
20140;SDS011;10231;47.702;9.826;2024-01-16T13:40:25;6.80;;;5.77;;
20140;SDS011;10231;47.702;9.826;2024-01-16T13:42:51;6.60;;;5.97;;
20140;SDS011;10231;47.702;9.826;2024-01-16T13:45:16;6.33;;;5.77;;
20140;SDS011;10231;47.702;9.826;2024-01-16T13:47:43;7.87;;;6.53;;
20140;SDS011;10231;47.702;9.826;2024-01-16T13:50:09;7.57;;;6.60;;
20140;SDS011;10231;47.702;9.826;2024-01-16T13:52:35;8.37;;;6.47;;
20140;SDS011;10231;47.702;9.826;2024-01-16T13:55:01;6.67;;;5.67;;
20140;SDS011;10231;47.702;9.826;2024-01-16T13:57:30;6.17;;;5.57;;
20140;SDS011;10231;47.702;9.826;2024-01-16T13:59:56;7.27;;;6.53;;
20140;SDS011;10231;47.702;9.826;2024-01-16T14:02:21;5.87;;;5.30;;
20140;SDS011;10231;47.702;9.826;2024-01-16T14:04:47;5.90;;;5.30;;
20140;SDS011;10231;47.702;9.826;2024-01-16T14:07:12;6.10;;;4.80;;
20140;SDS011;10231;47.702;9.826;2024-01-16T14:09:38;6.23;;;4.90;;
20140;SDS011;10231;47.702;9.826;2024-01-16T14:12:06;8.97;;;6.20;;
20140;SDS011;10231;47.702;9.826;2024-01-16T14:14:33;5.93;;;5.07;;
20140;SDS011;10231;47.702;9.826;2024-01-16T14:16:59;5.47;;;4.97;;
20140;SDS011;10231;47.702;9.826;2024-01-16T14:19:25;5.83;;;4.37;;
20140;SDS011;10231;47.702;9.826;2024-01-16T14:21:52;5.80;;;4.73;;
20140;SDS011;10231;47.702;9.826;2024-01-16T14:24:17;5.60;;;4.37;;
20140;SDS011;10231;47.702;9.826;2024-01-16T14:26:43;3.83;;;3.43;;
20140;SDS011;10231;47.702;9.826;2024-01-16T14:29:10;6.10;;;4.30;;
20140;SDS011;10231;47.702;9.826;2024-01-16T14:31:35;5.33;;;4.53;;
20140;SDS011;10231;47.702;9.826;2024-01-16T14:34:01;5.30;;;4.80;;
20140;SDS011;10231;47.702;9.826;2024-01-16T14:36:26;5.50;;;4.67;;
20140;SDS011;10231;47.702;9.826;2024-01-16T14:38:52;6.27;;;5.07;;
20140;SDS011;10231;47.702;9.826;2024-01-16T14:41:18;6.37;;;4.47;;
20140;SDS011;10231;47.702;9.826;2024-01-16T14:43:44;4.53;;;4.13;;
20140;SDS011;10231;47.702;9.826;2024-01-16T14:46:10;5.70;;;4.43;;
20140;SDS011;10231;47.702;9.826;2024-01-16T14:48:39;5.10;;;4.60;;
20140;SDS011;10231;47.702;9.826;2024-01-16T14:51:09;4.50;;;4.10;;
20140;SDS011;10231;47.702;9.826;2024-01-16T14:53:35;4.67;;;4.23;;
20140;SDS011;10231;47.702;9.826;2024-01-16T14:56:01;5.53;;;4.70;;
20140;SDS011;10231;47.702;9.826;2024-01-16T14:58:27;7.30;;;4.97;;
20140;SDS011;10231;47.702;9.826;2024-01-16T15:00:53;5.63;;;4.83;;
20140;SDS011;10231;47.702;9.826;2024-01-16T15:03:20;5.57;;;4.63;;